Time;durP1;ratioP1;P1;durP2;ratioP2;P2;SDS_P1;SDS_P2;PMS_P1;PMS_P2;Temp;Humidity;BMP_temperature;BMP_pressure;BME280_temperature;BME280_humidity;BME280_pressure;Samples;Min_cycle;Max_cycle;Signal;HPM_P1;HPM_P2
2021/07/05 00:01:50;;;;;;;7.75;4.32;;;;;;;;;;5034763;28;20041;-73
2021/07/05 00:04:16;;;;;;;5.95;4.00;;;;;;;;;;5027859;28;20029;-73
2021/07/05 00:06:42;;;;;;;9.50;4.00;;;;;;;;;;5035382;28;20040;-72
2021/07/05 00:09:08;;;;;;;8.52;4.07;;;;;;;;;;5029486;28;20075;-73
2021/07/05 00:11:34;;;;;;;7.45;3.95;;;;;;;;;;5028028;28;20040;-73
2021/07/05 00:14:01;;;;;;;5.90;4.28;;;;;;;;;;5029903;28;20501;-73
2021/07/05 00:16:27;;;;;;;5.55;4.00;;;;;;;;;;5023686;28;20029;-73
2021/07/05 00:18:53;;;;;;;6.15;4.03;;;;;;;;;;5025921;28;20033;-74
2021/07/05 00:21:19;;;;;;;5.97;3.60;;;;;;;;;;5026480;28;20022;-73
2021/07/05 00:23:46;;;;;;;8.52;4.03;;;;;;;;;;5024429;28;20152;-74
2021/07/05 00:26:12;;;;;;;6.20;3.72;;;;;;;;;;5026039;28;20029;-74
2021/07/05 00:28:38;;;;;;;6.35;3.55;;;;;;;;;;5025043;28;20037;-74
2021/07/05 00:31:05;;;;;;;6.63;3.67;;;;;;;;;;5019202;28;20108;-73
2021/07/05 00:33:32;;;;;;;5.28;3.47;;;;;;;;;;5025969;28;20497;-72
2021/07/05 00:35:59;;;;;;;5.57;3.92;;;;;;;;;;5026028;28;20037;-74
2021/07/05 00:38:25;;;;;;;6.63;3.30;;;;;;;;;;5024217;28;20034;-74
2021/07/05 00:40:51;;;;;;;5.80;3.47;;;;;;;;;;5025951;28;20040;-73
2021/07/05 00:43:17;;;;;;;6.57;3.67;;;;;;;;;;5025846;28;20021;-73
2021/07/05 00:45:43;;;;;;;5.82;3.92;;;;;;;;;;5025597;28;20045;-73
2021/07/05 00:48:10;;;;;;;7.93;4.10;;;;;;;;;;5024570;28;20410;-73
2021/07/05 00:50:36;;;;;;;4.53;3.70;;;;;;;;;;5025798;28;20463;-73
2021/07/05 00:53:03;;;;;;;25.40;5.47;;;;;;;;;;5023939;28;20190;-74
2021/07/05 00:55:32;;;;;;;9.00;3.95;;;;;;;;;;5020020;28;20068;-74
2021/07/05 00:57:58;;;;;;;8.52;3.75;;;;;;;;;;5023438;28;20619;-74
2021/07/05 01:00:25;;;;;;;11.15;4.15;;;;;;;;;;5023586;28;20481;-73
2021/07/05 01:02:52;;;;;;;9.48;4.45;;;;;;;;;;5024683;28;20026;-73
2021/07/05 01:05:19;;;;;;;8.40;4.28;;;;;;;;;;5025922;28;20091;-73
2021/07/05 01:07:46;;;;;;;14.88;4.45;;;;;;;;;;5025873;28;20029;-74
2021/07/05 01:10:13;;;;;;;9.80;4.10;;;;;;;;;;5024067;28;20080;-73
2021/07/05 01:12:39;;;;;;;7.05;3.60;;;;;;;;;;5025908;28;20021;-73
2021/07/05 01:15:07;;;;;;;4.38;3.58;;;;;;;;;;5025398;28;20049;-73
2021/07/05 01:17:33;;;;;;;8.18;3.88;;;;;;;;;;5025012;28;20108;-73
2021/07/05 01:19:59;;;;;;;8.85;3.55;;;;;;;;;;5024523;28;20057;-73
2021/07/05 01:22:25;;;;;;;8.65;4.40;;;;;;;;;;5026378;28;20536;-73
2021/07/05 01:24:51;;;;;;;8.15;3.63;;;;;;;;;;5029122;28;20069;-73
2021/07/05 01:27:20;;;;;;;6.10;3.80;;;;;;;;;;5029229;28;20033;-73
2021/07/05 01:29:46;;;;;;;6.15;3.45;;;;;;;;;;5026507;28;20033;-73
2021/07/05 01:32:13;;;;;;;8.05;3.80;;;;;;;;;;5029137;28;20018;-73
2021/07/05 01:34:40;;;;;;;5.07;3.78;;;;;;;;;;5029145;28;20496;-72
2021/07/05 01:37:07;;;;;;;6.78;3.58;;;;;;;;;;5028864;28;20036;-73
2021/07/05 01:39:34;;;;;;;4.15;2.83;;;;;;;;;;5028659;28;20029;-73
2021/07/05 01:42:00;;;;;;;3.70;3.20;;;;;;;;;;5028860;28;20032;-73
2021/07/05 01:44:26;;;;;;;6.53;3.30;;;;;;;;;;5027301;28;20512;-73
2021/07/05 01:46:52;;;;;;;6.13;3.03;;;;;;;;;;5028510;28;20117;-72
2021/07/05 01:49:19;;;;;;;6.68;3.10;;;;;;;;;;5028689;28;20094;-73
2021/07/05 01:51:45;;;;;;;3.78;3.15;;;;;;;;;;5028732;28;20485;-73
2021/07/05 01:54:13;;;;;;;9.75;4.03;;;;;;;;;;5028566;28;20036;-73
2021/07/05 01:56:39;;;;;;;6.38;4.15;;;;;;;;;;5027491;28;20057;-73
2021/07/05 01:59:06;;;;;;;5.32;4.75;;;;;;;;;;5028338;28;20049;-73
2021/07/05 02:01:32;;;;;;;6.40;4.75;;;;;;;;;;5028446;28;20104;-73
2021/07/05 02:03:58;;;;;;;8.07;4.50;;;;;;;;;;5028276;28;20067;-73
2021/07/05 02:06:24;;;;;;;6.15;4.47;;;;;;;;;;5027370;28;20055;-73
2021/07/05 02:08:51;;;;;;;6.00;5.10;;;;;;;;;;5028074;28;20021;-73
2021/07/05 02:11:17;;;;;;;5.68;4.97;;;;;;;;;;5028512;28;20082;-73
2021/07/05 02:13:44;;;;;;;10.43;5.80;;;;;;;;;;5026482;28;20025;-73
2021/07/05 02:16:10;;;;;;;6.78;4.97;;;;;;;;;;5028562;28;20525;-73
2021/07/05 02:18:36;;;;;;;9.35;5.45;;;;;;;;;;5026774;28;20030;-73
2021/07/05 02:21:04;;;;;;;5.85;4.68;;;;;;;;;;5028180;28;20018;-74
2021/07/05 02:23:31;;;;;;;6.53;4.63;;;;;;;;;;5028084;28;20055;-73
2021/07/05 02:25:57;;;;;;;8.68;5.15;;;;;;;;;;5026118;28;20480;-73
2021/07/05 02:28:25;;;;;;;4.45;3.75;;;;;;;;;;5028289;28;20039;-73
2021/07/05 02:30:51;;;;;;;4.35;3.90;;;;;;;;;;5026676;28;20033;-73
2021/07/05 02:33:18;;;;;;;5.55;3.92;;;;;;;;;;5028028;28;20017;-73
2021/07/05 02:35:45;;;;;;;5.13;3.45;;;;;;;;;;5027823;28;20570;-73
2021/07/05 02:38:12;;;;;;;5.75;4.00;;;;;;;;;;5027817;28;20495;-73
2021/07/05 02:40:42;;;;;;;4.78;3.65;;;;;;;;;;5026274;28;20032;-73
2021/07/05 02:43:09;;;;;;;5.87;3.90;;;;;;;;;;5027322;28;20025;-73
2021/07/05 02:45:36;;;;;;;7.07;3.80;;;;;;;;;;5027772;28;20048;-73
2021/07/05 02:48:04;;;;;;;6.40;3.60;;;;;;;;;;5026408;28;20381;-73
2021/07/05 02:50:31;;;;;;;8.68;4.22;;;;;;;;;;5027650;28;20029;-73
2021/07/05 02:52:57;;;;;;;6.78;4.32;;;;;;;;;;5027622;28;20036;-73
2021/07/05 02:55:24;;;;;;;8.73;4.05;;;;;;;;;;5027003;28;20408;-73
2021/07/05 02:57:51;;;;;;;5.18;4.15;;;;;;;;;;5027553;28;20516;-73
2021/07/05 03:00:22;;;;;;;4.65;3.38;;;;;;;;;;5027169;28;20024;-73
2021/07/05 03:02:48;;;;;;;6.82;3.20;;;;;;;;;;5021581;28;20082;-73
2021/07/05 03:05:16;;;;;;;4.85;3.50;;;;;;;;;;5022483;28;20102;-73
2021/07/05 03:07:43;;;;;;;6.88;3.72;;;;;;;;;;5022585;28;20517;-74
2021/07/05 03:10:10;;;;;;;5.57;3.42;;;;;;;;;;5020678;28;20055;-73
2021/07/05 03:12:37;;;;;;;9.77;3.95;;;;;;;;;;5022176;28;20052;-73
2021/07/05 03:15:04;;;;;;;5.78;3.03;;;;;;;;;;5020403;28;20129;-73
2021/07/05 03:17:30;;;;;;;5.53;3.20;;;;;;;;;;5021727;28;20036;-72
2021/07/05 03:19:57;;;;;;;4.93;3.13;;;;;;;;;;5022284;28;20033;-74
2021/07/05 03:22:23;;;;;;;6.18;3.22;;;;;;;;;;5021875;28;20021;-73
2021/07/05 03:24:49;;;;;;;6.93;3.35;;;;;;;;;;5020303;28;20029;-73
2021/07/05 03:27:15;;;;;;;4.53;3.05;;;;;;;;;;5022315;28;20127;-73
2021/07/05 03:29:41;;;;;;;5.47;2.92;;;;;;;;;;5021778;28;20037;-73
2021/07/05 03:32:08;;;;;;;5.93;3.70;;;;;;;;;;5022137;28;20029;-73
2021/07/05 03:34:35;;;;;;;6.10;3.00;;;;;;;;;;5020541;28;20120;-73
2021/07/05 03:37:01;;;;;;;6.03;3.20;;;;;;;;;;5021514;28;20018;-73
2021/07/05 03:39:28;;;;;;;7.57;3.22;;;;;;;;;;5021802;28;20036;-73
2021/07/05 03:41:54;;;;;;;5.93;3.28;;;;;;;;;;5021818;28;20488;-73
2021/07/05 03:44:20;;;;;;;5.25;3.20;;;;;;;;;;5020396;28;20378;-73
2021/07/05 03:46:47;;;;;;;7.70;3.53;;;;;;;;;;5021350;28;20017;-73
2021/07/05 03:49:13;;;;;;;4.13;3.25;;;;;;;;;;5021462;28;20053;-73
2021/07/05 03:51:40;;;;;;;3.60;3.03;;;;;;;;;;5021379;28;20133;-73
2021/07/05 03:54:06;;;;;;;5.70;3.10;;;;;;;;;;5021374;28;20021;-73
2021/07/05 03:56:32;;;;;;;5.25;3.05;;;;;;;;;;5019898;28;20436;-73
2021/07/05 03:58:58;;;;;;;4.80;3.40;;;;;;;;;;5021223;28;20099;-73
2021/07/05 04:01:24;;;;;;;6.10;3.20;;;;;;;;;;5021211;28;20037;-73
2021/07/05 04:03:51;;;;;;;6.03;3.15;;;;;;;;;;5019921;28;20041;-73
2021/07/05 04:06:17;;;;;;;3.63;2.85;;;;;;;;;;5021455;28;20172;-73
2021/07/05 04:08:43;;;;;;;4.63;3.17;;;;;;;;;;5017893;28;20106;-73
2021/07/05 04:11:09;;;;;;;4.45;3.17;;;;;;;;;;5020138;28;20675;-74
2021/07/05 04:13:35;;;;;;;5.18;3.33;;;;;;;;;;5020985;28;20614;-73
2021/07/05 04:16:02;;;;;;;5.30;2.90;;;;;;;;;;5021395;28;20109;-74
2021/07/05 04:18:28;;;;;;;4.93;3.15;;;;;;;;;;5021162;28;20025;-74
2021/07/05 04:20:54;;;;;;;5.20;3.25;;;;;;;;;;5020718;28;20029;-74
2021/07/05 04:23:24;;;;;;;8.50;3.58;;;;;;;;;;5019993;28;20052;-74
2021/07/05 04:25:50;;;;;;;4.28;3.47;;;;;;;;;;5021267;28;20041;-73
2021/07/05 04:28:16;;;;;;;6.60;3.88;;;;;;;;;;5021053;28;20651;-74
2021/07/05 04:30:43;;;;;;;5.18;3.03;;;;;;;;;;5021275;28;20026;-73
2021/07/05 04:33:09;;;;;;;6.43;3.83;;;;;;;;;;5021295;28;20440;-73
2021/07/05 04:35:35;;;;;;;5.70;3.35;;;;;;;;;;5019774;28;20108;-72
2021/07/05 04:38:02;;;;;;;5.47;3.20;;;;;;;;;;5021074;28;20325;-73
2021/07/05 04:40:30;;;;;;;4.15;3.45;;;;;;;;;;5021457;28;20035;-73
2021/07/05 04:42:56;;;;;;;6.40;3.63;;;;;;;;;;5020913;28;20156;-73
2021/07/05 04:45:27;;;;;;;6.38;4.10;;;;;;;;;;5019599;28;20033;-73
2021/07/05 04:47:54;;;;;;;4.70;3.63;;;;;;;;;;5020961;28;20469;-73
2021/07/05 04:50:20;;;;;;;10.60;4.55;;;;;;;;;;5019605;28;20390;-73
2021/07/05 04:52:47;;;;;;;9.75;4.80;;;;;;;;;;5021000;28;20028;-73
2021/07/05 04:55:14;;;;;;;13.10;4.47;;;;;;;;;;5020819;28;20112;-73
2021/07/05 04:57:41;;;;;;;8.30;4.60;;;;;;;;;;5023778;28;20037;-73
2021/07/05 05:00:16;;;;;;;7.55;4.75;;;;;;;;;;5022931;28;20032;-73
2021/07/05 05:02:42;;;;;;;11.77;5.25;;;;;;;;;;5024968;28;20021;-73
2021/07/05 05:05:08;;;;;;;15.25;5.47;;;;;;;;;;5024661;28;20037;-73
2021/07/05 05:07:35;;;;;;;9.95;4.80;;;;;;;;;;5024724;28;20109;-73
2021/07/05 05:10:02;;;;;;;9.45;4.70;;;;;;;;;;5021838;28;20439;-75
2021/07/05 05:12:29;;;;;;;9.35;5.10;;;;;;;;;;5024708;28;20096;-71
2021/07/05 05:14:55;;;;;;;10.13;5.13;;;;;;;;;;5024296;28;20052;-76
2021/07/05 05:17:22;;;;;;;9.25;4.90;;;;;;;;;;5024534;28;20762;-75
2021/07/05 05:19:48;;;;;;;11.30;5.05;;;;;;;;;;5022865;28;20120;-71
2021/07/05 05:22:14;;;;;;;12.73;6.00;;;;;;;;;;5023984;28;20069;-72
2021/07/05 05:24:40;;;;;;;16.92;6.50;;;;;;;;;;5024216;28;20124;-73
2021/07/05 05:27:07;;;;;;;8.93;5.22;;;;;;;;;;5022674;28;20825;-75
2021/07/05 05:29:33;;;;;;;13.25;5.43;;;;;;;;;;5020129;28;20030;-72
2021/07/05 05:31:59;;;;;;;12.55;5.30;;;;;;;;;;5022599;28;20029;-74
2021/07/05 05:34:26;;;;;;;12.18;5.22;;;;;;;;;;5022689;28;20534;-73
2021/07/05 05:36:52;;;;;;;17.75;6.47;;;;;;;;;;5024388;28;20112;-74
2021/07/05 05:39:18;;;;;;;15.70;5.65;;;;;;;;;;5024138;28;20477;-72
2021/07/05 05:41:44;;;;;;;12.13;5.63;;;;;;;;;;5022510;28;20029;-73
2021/07/05 05:44:10;;;;;;;11.15;5.18;;;;;;;;;;5024023;28;20104;-73
2021/07/05 05:46:37;;;;;;;8.80;5.03;;;;;;;;;;5023663;28;20112;-74
2021/07/05 05:49:03;;;;;;;13.63;5.38;;;;;;;;;;5023597;28;20029;-75
2021/07/05 05:51:35;;;;;;;12.50;5.13;;;;;;;;;;5023851;28;20256;-74
2021/07/05 05:54:02;;;;;;;13.75;6.05;;;;;;;;;;5024389;28;20063;-74
2021/07/05 05:56:30;;;;;;;12.80;5.95;;;;;;;;;;5022425;28;20370;-73
2021/07/05 05:59:00;;;;;;;17.55;5.28;;;;;;;;;;5017019;28;20017;-76
2021/07/05 06:01:26;;;;;;;12.30;6.07;;;;;;;;;;5023371;28;20057;-77
2021/07/05 06:03:52;;;;;;;11.00;5.75;;;;;;;;;;5022176;28;20036;-73
2021/07/05 06:06:19;;;;;;;14.43;6.13;;;;;;;;;;5024086;28;20042;-73
2021/07/05 06:08:45;;;;;;;10.45;5.40;;;;;;;;;;5022963;28;20033;-73
2021/07/05 06:11:11;;;;;;;15.52;6.18;;;;;;;;;;5023335;28;20041;-73
2021/07/05 06:13:37;;;;;;;11.20;5.72;;;;;;;;;;5023525;28;20022;-73
2021/07/05 06:16:03;;;;;;;19.33;5.90;;;;;;;;;;5024095;28;20022;-73
2021/07/05 06:18:29;;;;;;;12.32;5.65;;;;;;;;;;5022235;28;20039;-73
2021/07/05 06:20:56;;;;;;;17.30;5.97;;;;;;;;;;5023568;28;20047;-73
2021/07/05 06:23:26;;;;;;;12.43;6.03;;;;;;;;;;5023853;28;20018;-73
2021/07/05 06:25:53;;;;;;;21.27;6.10;;;;;;;;;;5023642;28;20496;-73
2021/07/05 06:28:20;;;;;;;12.63;5.68;;;;;;;;;;5023633;28;20255;-74
2021/07/05 06:30:46;;;;;;;11.68;5.90;;;;;;;;;;5022122;28;20132;-73
2021/07/05 06:33:13;;;;;;;14.30;5.90;;;;;;;;;;5022665;28;20152;-74
2021/07/05 06:35:39;;;;;;;18.13;5.57;;;;;;;;;;5023396;28;20061;-73
2021/07/05 06:38:06;;;;;;;15.15;6.70;;;;;;;;;;5021663;28;20064;-74
2021/07/05 06:40:32;;;;;;;11.38;5.75;;;;;;;;;;5023737;28;20108;-74
2021/07/05 06:42:59;;;;;;;15.02;5.55;;;;;;;;;;5023287;28;20021;-74
2021/07/05 06:45:25;;;;;;;9.30;5.10;;;;;;;;;;5023956;28;20034;-74
2021/07/05 06:47:52;;;;;;;11.45;5.95;;;;;;;;;;5021674;28;20082;-73
2021/07/05 06:50:18;;;;;;;19.10;5.90;;;;;;;;;;5023355;28;20028;-73
2021/07/05 06:52:44;;;;;;;14.98;5.55;;;;;;;;;;5023331;28;20025;-73
2021/07/05 06:55:12;;;;;;;11.90;5.57;;;;;;;;;;5022942;28;20099;-73
2021/07/05 06:57:38;;;;;;;12.75;6.15;;;;;;;;;;5021690;28;20405;-74
2021/07/05 07:00:09;;;;;;;15.55;5.75;;;;;;;;;;5022527;28;20030;-73
2021/07/05 07:02:36;;;;;;;16.02;5.72;;;;;;;;;;5022675;28;20021;-73
2021/07/05 07:05:03;;;;;;;13.05;5.60;;;;;;;;;;5021470;28;20048;-73
2021/07/05 07:07:29;;;;;;;18.63;5.53;;;;;;;;;;5022721;28;20359;-73
2021/07/05 07:09:55;;;;;;;14.63;4.75;;;;;;;;;;5021952;28;20029;-74
2021/07/05 07:12:21;;;;;;;10.48;3.92;;;;;;;;;;5006657;28;20028;-73
2021/07/05 07:14:48;;;;;;;6.78;4.55;;;;;;;;;;5007541;28;20865;-75
2021/07/05 07:19:43;;;;;;;8.13;4.88;;;;;;;;;;5007182;28;20037;-74
2021/07/05 07:22:09;;;;;;;6.45;4.60;;;;;;;;;;5008917;28;20021;-73
2021/07/05 07:24:35;;;;;;;6.70;4.65;;;;;;;;;;5010634;28;20111;-74
2021/07/05 07:27:01;;;;;;;6.43;4.18;;;;;;;;;;5003656;28;20161;-73
2021/07/05 07:29:28;;;;;;;6.15;4.15;;;;;;;;;;5006095;28;20037;-74
2021/07/05 07:31:54;;;;;;;6.93;4.03;;;;;;;;;;5009640;28;20108;-74
2021/07/05 07:34:20;;;;;;;5.80;3.83;;;;;;;;;;5007333;28;20036;-73
2021/07/05 07:36:47;;;;;;;4.93;4.10;;;;;;;;;;5007334;28;20378;-72
2021/07/05 07:39:17;;;;;;;9.63;4.13;;;;;;;;;;5008426;28;20026;-74
2021/07/05 07:41:43;;;;;;;4.95;4.15;;;;;;;;;;5018642;28;20386;-73
2021/07/05 07:44:09;;;;;;;5.55;3.63;;;;;;;;;;5019722;28;20487;-73
2021/07/05 07:46:35;;;;;;;9.65;3.85;;;;;;;;;;5014880;28;20670;-73
2021/07/05 07:49:02;;;;;;;9.85;3.95;;;;;;;;;;5021169;28;20583;-73
2021/07/05 07:51:28;;;;;;;5.57;3.22;;;;;;;;;;5020649;28;20044;-73
2021/07/05 07:53:56;;;;;;;5.50;3.60;;;;;;;;;;5009215;28;20124;-72
2021/07/05 07:56:22;;;;;;;4.82;3.90;;;;;;;;;;5012365;28;20056;-74
2021/07/05 07:58:49;;;;;;;6.60;3.30;;;;;;;;;;5020392;28;20428;-73
2021/07/05 08:01:15;;;;;;;10.35;3.95;;;;;;;;;;5013556;28;20404;-75
2021/07/05 08:03:41;;;;;;;8.27;4.00;;;;;;;;;;5017965;28;20060;-72
2021/07/05 08:06:08;;;;;;;6.32;3.97;;;;;;;;;;5017976;28;20037;-71
2021/07/05 08:08:34;;;;;;;6.70;3.38;;;;;;;;;;5016780;28;20105;-72
2021/07/05 08:11:00;;;;;;;7.53;4.25;;;;;;;;;;5013873;28;20033;-72
2021/07/05 08:13:26;;;;;;;9.23;3.80;;;;;;;;;;5010474;28;20030;-71
2021/07/05 08:15:53;;;;;;;10.68;4.53;;;;;;;;;;5014177;28;20486;-72
2021/07/05 08:18:20;;;;;;;8.60;4.38;;;;;;;;;;5011441;28;20036;-71
2021/07/05 08:20:46;;;;;;;6.78;4.18;;;;;;;;;;5010469;28;20013;-72
2021/07/05 08:23:13;;;;;;;12.98;4.43;;;;;;;;;;5010211;28;20036;-71
2021/07/05 08:25:39;;;;;;;8.02;3.83;;;;;;;;;;5009262;28;20033;-74
2021/07/05 08:28:05;;;;;;;6.32;4.00;;;;;;;;;;5006235;28;20026;-72
2021/07/05 08:30:32;;;;;;;9.10;4.50;;;;;;;;;;5012142;28;20041;-72
2021/07/05 08:32:58;;;;;;;9.65;4.15;;;;;;;;;;5009521;28;20494;-73
2021/07/05 08:35:24;;;;;;;6.25;3.47;;;;;;;;;;5007260;28;20081;-72
2021/07/05 08:37:55;;;;;;;6.85;3.70;;;;;;;;;;5007844;28;20036;-73
2021/07/05 08:40:22;;;;;;;7.03;3.38;;;;;;;;;;5008526;28;20048;-73
2021/07/05 08:42:48;;;;;;;8.88;3.55;;;;;;;;;;5005422;28;20029;-74
2021/07/05 08:45:15;;;;;;;13.63;4.03;;;;;;;;;;5006137;28;20037;-73
2021/07/05 08:47:42;;;;;;;5.43;3.33;;;;;;;;;;5007978;28;20037;-72
2021/07/05 08:50:11;;;;;;;5.45;3.60;;;;;;;;;;5009166;28;20746;-72
2021/07/05 08:52:42;;;;;;;6.38;3.35;;;;;;;;;;5021057;28;20035;-72
2021/07/05 08:55:08;;;;;;;3.90;3.08;;;;;;;;;;5011598;28;20519;-72
2021/07/05 08:57:38;;;;;;;7.45;3.92;;;;;;;;;;5011208;28;20030;-72
2021/07/05 09:00:06;;;;;;;7.43;3.80;;;;;;;;;;5012243;28;20061;-77
2021/07/05 09:02:33;;;;;;;6.72;4.22;;;;;;;;;;5009874;28;20034;-69
2021/07/05 09:04:59;;;;;;;12.02;4.63;;;;;;;;;;5009538;28;20041;-70
2021/07/05 09:07:25;;;;;;;8.15;4.10;;;;;;;;;;5016907;28;20412;-70
2021/07/05 09:10:02;;;;;;;9.80;4.47;;;;;;;;;;5011757;28;20034;-71
2021/07/05 09:12:29;;;;;;;8.50;4.25;;;;;;;;;;5011329;28;20542;-73
2021/07/05 09:15:04;;;;;;;10.80;4.97;;;;;;;;;;5006944;28;20041;-75
2021/07/05 09:17:34;;;;;;;9.07;4.03;;;;;;;;;;5019894;28;20036;-74
2021/07/05 09:20:02;;;;;;;8.90;4.03;;;;;;;;;;5007934;28;20061;-72
2021/07/05 09:22:28;;;;;;;7.85;3.95;;;;;;;;;;5012382;28;20441;-71
2021/07/05 09:24:57;;;;;;;7.43;4.32;;;;;;;;;;5007896;28;20096;-76
2021/07/05 09:27:33;;;;;;;8.30;4.40;;;;;;;;;;5009337;28;20021;-75
2021/07/05 09:30:10;;;;;;;9.80;4.50;;;;;;;;;;5005488;28;20079;-76
2021/07/05 09:32:36;;;;;;;8.35;4.80;;;;;;;;;;5015076;28;20590;-74
2021/07/05 09:35:15;;;;;;;8.68;4.53;;;;;;;;;;5010577;28;20030;-74
2021/07/05 09:37:54;;;;;;;7.75;4.18;;;;;;;;;;5010721;28;20037;-76
2021/07/05 09:40:21;;;;;;;7.10;4.40;;;;;;;;;;5012993;28;20288;-74
2021/07/05 09:42:48;;;;;;;7.85;4.72;;;;;;;;;;5012219;28;20052;-75
2021/07/05 09:45:28;;;;;;;14.77;4.93;;;;;;;;;;5011997;28;20038;-75
2021/07/05 09:48:12;;;;;;;8.25;4.60;;;;;;;;;;5010101;28;20429;-75
2021/07/05 09:50:38;;;;;;;7.15;4.43;;;;;;;;;;5018338;28;20064;-76
2021/07/05 09:53:23;;;;;;;7.68;4.82;;;;;;;;;;5006403;28;20027;-76
2021/07/05 09:55:49;;;;;;;9.02;4.55;;;;;;;;;;5015264;28;20087;-74
2021/07/05 09:58:16;;;;;;;7.72;4.18;;;;;;;;;;5018013;28;20545;-74
2021/07/05 10:00:42;;;;;;;5.63;3.80;;;;;;;;;;5022902;28;20068;-72
2021/07/05 10:03:09;;;;;;;12.38;4.60;;;;;;;;;;5019286;28;20022;-72
2021/07/05 10:05:43;;;;;;;5.60;4.10;;;;;;;;;;5021690;28;20052;-72
2021/07/05 10:08:10;;;;;;;4.80;4.18;;;;;;;;;;5022025;28;20025;-72
2021/07/05 10:10:38;;;;;;;6.30;3.78;;;;;;;;;;5022693;28;20022;-72
2021/07/05 10:13:06;;;;;;;6.28;3.97;;;;;;;;;;5021662;28;20296;-72
2021/07/05 10:15:32;;;;;;;4.93;3.53;;;;;;;;;;5022258;28;20566;-74
2021/07/05 10:17:59;;;;;;;7.22;4.32;;;;;;;;;;5023192;28;20528;-74
2021/07/05 10:20:26;;;;;;;16.08;4.43;;;;;;;;;;5020443;28;20040;-74
2021/07/05 10:22:55;;;;;;;6.18;4.07;;;;;;;;;;5018877;28;20021;-73
2021/07/05 10:25:22;;;;;;;10.68;4.07;;;;;;;;;;5016572;28;20045;-73
2021/07/05 10:27:49;;;;;;;6.90;3.60;;;;;;;;;;5021110;28;20029;-72
2021/07/05 10:30:16;;;;;;;8.43;3.60;;;;;;;;;;5022266;28;20690;-72
2021/07/05 10:32:43;;;;;;;6.30;3.72;;;;;;;;;;5022974;28;20060;-73
2021/07/05 10:35:11;;;;;;;6.78;3.38;;;;;;;;;;5023270;28;20036;-73
2021/07/05 10:37:51;;;;;;;4.57;2.95;;;;;;;;;;5023433;28;20025;-72
2021/07/05 10:40:18;;;;;;;5.20;2.60;;;;;;;;;;5019842;28;20022;-72
2021/07/05 10:42:45;;;;;;;5.60;2.30;;;;;;;;;;5020904;28;20033;-73
2021/07/05 10:45:13;;;;;;;5.20;2.72;;;;;;;;;;5022370;28;20068;-73
2021/07/05 10:47:42;;;;;;;7.63;2.65;;;;;;;;;;5023810;28;20032;-73
2021/07/05 10:50:09;;;;;;;7.20;2.38;;;;;;;;;;5022321;28;20099;-73
2021/07/05 10:52:51;;;;;;;4.30;1.77;;;;;;;;;;5015041;28;20386;-73
2021/07/05 10:55:35;;;;;;;5.30;2.00;;;;;;;;;;5021274;28;20021;-72
2021/07/05 10:58:02;;;;;;;4.32;1.80;;;;;;;;;;5021635;28;20474;-73
2021/07/05 11:00:40;;;;;;;5.50;2.10;;;;;;;;;;5022375;28;20036;-73
2021/07/05 11:03:06;;;;;;;5.68;2.22;;;;;;;;;;5021722;28;20036;-72
2021/07/05 11:05:36;;;;;;;3.72;1.75;;;;;;;;;;5020267;28;20029;-72
2021/07/05 11:08:20;;;;;;;6.78;2.10;;;;;;;;;;5008307;28;20041;-73
2021/07/05 11:10:47;;;;;;;6.78;2.25;;;;;;;;;;5008475;28;20022;-73
2021/07/05 11:13:13;;;;;;;4.68;2.30;;;;;;;;;;5004951;28;20113;-72
2021/07/05 11:15:47;;;;;;;8.75;2.95;;;;;;;;;;5006230;28;20097;-72
2021/07/05 11:18:32;;;;;;;5.63;2.35;;;;;;;;;;5005780;28;20029;-72
2021/07/05 11:20:58;;;;;;;6.07;2.28;;;;;;;;;;5011092;28;20099;-73
2021/07/05 11:23:25;;;;;;;6.20;2.40;;;;;;;;;;5008852;28;20493;-72
2021/07/05 11:26:11;;;;;;;7.18;2.28;;;;;;;;;;5004356;28;20117;-72
2021/07/05 11:28:37;;;;;;;5.95;2.80;;;;;;;;;;5012673;28;20621;-72
2021/07/05 11:31:19;;;;;;;6.88;2.50;;;;;;;;;;5016545;28;20036;-72
2021/07/05 11:33:45;;;;;;;8.18;2.65;;;;;;;;;;5021350;28;20163;-72
2021/07/05 11:36:20;;;;;;;6.82;2.70;;;;;;;;;;5021532;28;20033;-72
2021/07/05 11:38:58;;;;;;;6.53;2.75;;;;;;;;;;5020924;28;20036;-73
2021/07/05 11:41:25;;;;;;;6.93;3.55;;;;;;;;;;5025572;28;20405;-75
2021/07/05 11:44:12;;;;;;;10.55;5.10;;;;;;;;;;5012496;28;20480;-73
2021/07/05 11:46:38;;;;;;;10.05;5.88;;;;;;;;;;5023766;28;20045;-73
2021/07/05 11:49:08;;;;;;;12.35;6.97;;;;;;;;;;5022956;28;20025;-73
2021/07/05 11:51:49;;;;;;;9.85;5.95;;;;;;;;;;5019986;28;20331;-73
2021/07/05 11:54:20;;;;;;;10.70;4.57;;;;;;;;;;5020974;28;20033;-75
2021/07/05 11:56:47;;;;;;;12.98;4.00;;;;;;;;;;5021271;28;20029;-76
2021/07/05 11:59:30;;;;;;;12.68;3.80;;;;;;;;;;5020273;28;20109;-76
2021/07/05 12:02:00;;;;;;;5.65;2.85;;;;;;;;;;5017350;28;20025;-75
2021/07/05 12:04:28;;;;;;;8.50;3.10;;;;;;;;;;5019088;28;20033;-75
2021/07/05 12:06:54;;;;;;;8.88;3.05;;;;;;;;;;5018576;28;20033;-75
2021/07/05 12:09:25;;;;;;;8.00;3.42;;;;;;;;;;5020221;28;20577;-74
2021/07/05 12:11:51;;;;;;;9.98;3.10;;;;;;;;;;5020581;28;20022;-75
2021/07/05 12:14:19;;;;;;;9.80;3.72;;;;;;;;;;5020127;28;20047;-76
2021/07/05 12:16:52;;;;;;;9.88;3.08;;;;;;;;;;5021589;28;20100;-75
2021/07/05 12:19:18;;;;;;;12.57;3.97;;;;;;;;;;5020950;28;20041;-76
2021/07/05 12:21:49;;;;;;;9.57;3.88;;;;;;;;;;5019350;28;20033;-74
2021/07/05 12:24:19;;;;;;;8.97;3.57;;;;;;;;;;5018695;28;20109;-75
2021/07/05 12:26:47;;;;;;;8.93;3.75;;;;;;;;;;5020157;28;20368;-76
2021/07/05 12:29:34;;;;;;;12.52;4.10;;;;;;;;;;5020878;28;20024;-75
2021/07/05 12:32:06;;;;;;;8.23;3.67;;;;;;;;;;5020668;28;20057;-75
2021/07/05 12:34:48;;;;;;;6.65;3.30;;;;;;;;;;5018843;28;20057;-74
2021/07/05 12:37:14;;;;;;;10.80;3.80;;;;;;;;;;5014116;28;20119;-76
2021/07/05 12:39:47;;;;;;;12.90;3.67;;;;;;;;;;5021126;28;20032;-75
2021/07/05 12:42:22;;;;;;;9.00;3.80;;;;;;;;;;5011172;28;20088;-75
2021/07/05 12:44:49;;;;;;;6.93;3.70;;;;;;;;;;5019697;28;20036;-76
2021/07/05 12:47:15;;;;;;;11.43;3.50;;;;;;;;;;5020262;28;20108;-74
2021/07/05 12:49:41;;;;;;;9.75;3.72;;;;;;;;;;5020630;28;20437;-77
2021/07/05 12:52:09;;;;;;;6.53;3.58;;;;;;;;;;5017953;28;20029;-76
2021/07/05 12:54:38;;;;;;;10.80;4.18;;;;;;;;;;5021133;28;20048;-76
2021/07/05 12:57:12;;;;;;;9.40;4.32;;;;;;;;;;5019904;28;20029;-74
2021/07/05 12:59:39;;;;;;;5.43;4.03;;;;;;;;;;5019409;28;20093;-75
2021/07/05 13:02:06;;;;;;;6.00;4.22;;;;;;;;;;5020808;28;20033;-74
2021/07/05 13:04:32;;;;;;;9.75;3.90;;;;;;;;;;5020782;28;20028;-76
2021/07/05 13:07:03;;;;;;;12.48;4.03;;;;;;;;;;5020518;28;20485;-76
2021/07/05 13:09:31;;;;;;;9.30;3.90;;;;;;;;;;5020821;28;20190;-75
2021/07/05 13:11:58;;;;;;;7.35;4.18;;;;;;;;;;5019355;28;20378;-74
2021/07/05 13:14:28;;;;;;;9.15;4.50;;;;;;;;;;5018959;28;20053;-75
2021/07/05 13:17:08;;;;;;;11.52;3.90;;;;;;;;;;5020769;28;20033;-75
2021/07/05 13:19:34;;;;;;;10.65;4.30;;;;;;;;;;5021708;28;20519;-75
2021/07/05 13:22:12;;;;;;;7.72;4.00;;;;;;;;;;5024333;28;20029;-76
2021/07/05 13:24:42;;;;;;;9.88;4.25;;;;;;;;;;5020150;28;20509;-75
2021/07/05 13:27:15;;;;;;;7.30;3.88;;;;;;;;;;5023364;28;20505;-75
2021/07/05 13:29:41;;;;;;;11.48;4.20;;;;;;;;;;5023484;28;20117;-75
2021/07/05 13:32:18;;;;;;;18.95;5.18;;;;;;;;;;5023031;28;20021;-75
2021/07/05 13:34:45;;;;;;;6.35;3.85;;;;;;;;;;5021903;28;20029;-75
2021/07/05 13:37:16;;;;;;;8.55;4.43;;;;;;;;;;5023161;28;20465;-74
2021/07/05 13:39:43;;;;;;;9.27;5.13;;;;;;;;;;5023843;28;20029;-76
2021/07/05 13:42:11;;;;;;;10.75;4.90;;;;;;;;;;5023781;28;20018;-76
2021/07/05 13:44:37;;;;;;;11.52;4.65;;;;;;;;;;5023961;28;20108;-76
2021/07/05 13:47:14;;;;;;;8.40;4.50;;;;;;;;;;5022984;28;20061;-78
2021/07/05 13:49:40;;;;;;;10.57;4.80;;;;;;;;;;5022479;28;20083;-76
2021/07/05 13:52:06;;;;;;;7.13;5.00;;;;;;;;;;5022385;28;20503;-76
2021/07/05 13:54:32;;;;;;;13.57;5.10;;;;;;;;;;5023071;28;20037;-77
2021/07/05 13:57:18;;;;;;;11.50;5.20;;;;;;;;;;5016417;28;20444;-74
2021/07/05 13:59:45;;;;;;;10.68;5.25;;;;;;;;;;5021228;28;20681;-74
2021/07/05 14:02:16;;;;;;;8.30;4.97;;;;;;;;;;5021358;28;20502;-75
2021/07/05 14:04:42;;;;;;;10.32;4.95;;;;;;;;;;5023057;28;20128;-75
2021/07/05 14:07:09;;;;;;;13.13;4.90;;;;;;;;;;5022542;28;20044;-75
2021/07/05 14:09:35;;;;;;;7.15;5.18;;;;;;;;;;5022613;28;20350;-75
2021/07/05 14:12:01;;;;;;;7.47;4.68;;;;;;;;;;5021432;28;20025;-75
2021/07/05 14:14:27;;;;;;;11.85;5.15;;;;;;;;;;5021594;28;20536;-75
2021/07/05 14:16:58;;;;;;;11.48;4.93;;;;;;;;;;5022401;28;20049;-75
2021/07/05 14:19:24;;;;;;;12.32;5.57;;;;;;;;;;5020935;28;20018;-75
2021/07/05 14:21:50;;;;;;;11.48;5.30;;;;;;;;;;5022575;28;20554;-75
2021/07/05 14:24:20;;;;;;;15.07;4.90;;;;;;;;;;5022301;28;20243;-75
2021/07/05 14:26:46;;;;;;;11.63;5.15;;;;;;;;;;5022342;28;20125;-75
2021/07/05 14:29:12;;;;;;;7.90;4.65;;;;;;;;;;5022086;28;20132;-75
2021/07/05 14:31:38;;;;;;;9.95;4.47;;;;;;;;;;5021938;28;20040;-75
2021/07/05 14:34:04;;;;;;;8.95;4.35;;;;;;;;;;5020625;28;20026;-75
2021/07/05 14:36:30;;;;;;;7.47;4.28;;;;;;;;;;5021880;28;20025;-75
2021/07/05 14:38:58;;;;;;;11.05;4.18;;;;;;;;;;5020865;28;20029;-75
2021/07/05 14:41:25;;;;;;;10.90;5.22;;;;;;;;;;5021261;28;20115;-75
2021/07/05 14:43:51;;;;;;;11.13;4.57;;;;;;;;;;5020443;28;20028;-75
2021/07/05 14:46:17;;;;;;;8.73;4.50;;;;;;;;;;5022108;28;20535;-75